Terminal Aerodrome Forecast
Issued by NWS

Current Version | Previous Version | Text Only | Print | Product List | Glossary Off
Versions: 1 2 3 4 5 6 7 8 9 10 11 12 13

633
FTUS44 KCRP 212335
TAFLRD
TAF
KLRD 212335Z 2200/2224 15012G18KT P6SM VCTS SCT060CB
     FM220200 13014KT P6SM SCT250
     FM221000 13010KT P6SM BKN020
     FM221500 15014G20KT P6SM BKN028
     FM222000 13012KT P6SM BKN050=

USA.gov is the U.S. government's official web portal to all federal, state and local government web resources and services.